sensor_id;sensor_type;location;lat;lon;timestamp;temperature;humidity
52565;DHT22;38460;53.106;7.004;2024-02-21T00:02:20;9.20;99.90
52565;DHT22;38460;53.106;7.004;2024-02-21T00:04:45;9.20;99.90
52565;DHT22;38460;53.106;7.004;2024-02-21T00:07:11;9.20;99.90
52565;DHT22;38460;53.106;7.004;2024-02-21T00:09:37;9.20;99.90
52565;DHT22;38460;53.106;7.004;2024-02-21T00:12:03;9.20;99.90
52565;DHT22;38460;53.106;7.004;2024-02-21T00:14:29;9.20;99.90
52565;DHT22;38460;53.106;7.004;2024-02-21T00:16:55;9.20;99.90
52565;DHT22;38460;53.106;7.004;2024-02-21T00:19:21;9.20;99.90
52565;DHT22;38460;53.106;7.004;2024-02-21T00:21:47;9.10;99.90
52565;DHT22;38460;53.106;7.004;2024-02-21T00:24:13;9.90;99.90
52565;DHT22;38460;53.106;7.004;2024-02-21T00:26:38;9.20;99.90
52565;DHT22;38460;53.106;7.004;2024-02-21T00:29:04;9.20;99.90
52565;DHT22;38460;53.106;7.004;2024-02-21T00:31:31;9.10;99.90
52565;DHT22;38460;53.106;7.004;2024-02-21T00:33:56;9.20;99.90
52565;DHT22;38460;53.106;7.004;2024-02-21T00:36:23;9.10;99.90
52565;DHT22;38460;53.106;7.004;2024-02-21T00:38:49;9.10;99.90
52565;DHT22;38460;53.106;7.004;2024-02-21T00:41:15;9.10;99.90
52565;DHT22;38460;53.106;7.004;2024-02-21T00:43:41;9.10;99.90
52565;DHT22;38460;53.106;7.004;2024-02-21T00:46:07;9.00;99.90
52565;DHT22;38460;53.106;7.004;2024-02-21T00:48:33;9.00;99.90
52565;DHT22;38460;53.106;7.004;2024-02-21T00:50:59;9.00;99.90
52565;DHT22;38460;53.106;7.004;2024-02-21T00:53:25;9.00;99.90
52565;DHT22;38460;53.106;7.004;2024-02-21T00:55:51;8.90;99.90
52565;DHT22;38460;53.106;7.004;2024-02-21T00:58:17;8.90;99.90
52565;DHT22;38460;53.106;7.004;2024-02-21T01:00:42;9.00;99.90
52565;DHT22;38460;53.106;7.004;2024-02-21T01:03:08;8.90;99.90
52565;DHT22;38460;53.106;7.004;2024-02-21T01:05:34;8.90;99.90
52565;DHT22;38460;53.106;7.004;2024-02-21T01:08:00;8.90;99.90
52565;DHT22;38460;53.106;7.004;2024-02-21T01:10:25;8.90;99.90
52565;DHT22;38460;53.106;7.004;2024-02-21T01:12:51;8.90;99.90
52565;DHT22;38460;53.106;7.004;2024-02-21T01:15:17;8.90;99.90
52565;DHT22;38460;53.106;7.004;2024-02-21T01:17:42;8.90;99.90
52565;DHT22;38460;53.106;7.004;2024-02-21T01:20:09;8.90;99.90
52565;DHT22;38460;53.106;7.004;2024-02-21T01:22:34;8.90;99.90
52565;DHT22;38460;53.106;7.004;2024-02-21T01:25:00;8.90;99.90
52565;DHT22;38460;53.106;7.004;2024-02-21T01:27:26;8.90;99.90
52565;DHT22;38460;53.106;7.004;2024-02-21T01:29:52;8.90;99.90
52565;DHT22;38460;53.106;7.004;2024-02-21T01:32:17;8.90;99.90
52565;DHT22;38460;53.106;7.004;2024-02-21T01:34:43;8.90;99.90
52565;DHT22;38460;53.106;7.004;2024-02-21T01:37:09;8.90;99.90
52565;DHT22;38460;53.106;7.004;2024-02-21T01:39:35;8.90;99.90
52565;DHT22;38460;53.106;7.004;2024-02-21T01:42:00;8.90;99.90
52565;DHT22;38460;53.106;7.004;2024-02-21T01:44:26;8.90;99.90
52565;DHT22;38460;53.106;7.004;2024-02-21T01:46:55;8.90;99.90
52565;DHT22;38460;53.106;7.004;2024-02-21T01:49:21;8.90;99.90
52565;DHT22;38460;53.106;7.004;2024-02-21T01:51:48;8.90;99.90
52565;DHT22;38460;53.106;7.004;2024-02-21T01:54:15;8.90;99.90
52565;DHT22;38460;53.106;7.004;2024-02-21T01:56:42;8.90;99.90
52565;DHT22;38460;53.106;7.004;2024-02-21T01:59:08;8.90;99.90
52565;DHT22;38460;53.106;7.004;2024-02-21T02:01:34;8.90;99.90
52565;DHT22;38460;53.106;7.004;2024-02-21T02:04:00;8.90;99.90
52565;DHT22;38460;53.106;7.004;2024-02-21T02:06:26;8.80;99.90
52565;DHT22;38460;53.106;7.004;2024-02-21T02:08:52;8.80;99.90
52565;DHT22;38460;53.106;7.004;2024-02-21T02:11:18;8.80;99.90
52565;DHT22;38460;53.106;7.004;2024-02-21T02:13:44;8.80;99.90
52565;DHT22;38460;53.106;7.004;2024-02-21T02:16:10;8.70;99.90
52565;DHT22;38460;53.106;7.004;2024-02-21T02:18:35;8.70;99.90
52565;DHT22;38460;53.106;7.004;2024-02-21T02:21:01;8.70;99.90
52565;DHT22;38460;53.106;7.004;2024-02-21T02:23:32;8.70;99.90
52565;DHT22;38460;53.106;7.004;2024-02-21T02:25:59;8.70;99.90
52565;DHT22;38460;53.106;7.004;2024-02-21T02:28:26;8.70;99.90
52565;DHT22;38460;53.106;7.004;2024-02-21T02:30:52;8.60;99.90
52565;DHT22;38460;53.106;7.004;2024-02-21T02:33:18;8.60;99.90
52565;DHT22;38460;53.106;7.004;2024-02-21T02:35:44;8.60;99.90
52565;DHT22;38460;53.106;7.004;2024-02-21T02:38:09;8.60;99.90
52565;DHT22;38460;53.106;7.004;2024-02-21T02:40:38;8.60;99.90
52565;DHT22;38460;53.106;7.004;2024-02-21T02:43:04;8.60;99.90
52565;DHT22;38460;53.106;7.004;2024-02-21T02:45:30;8.60;99.90
52565;DHT22;38460;53.106;7.004;2024-02-21T02:47:57;8.60;99.90
52565;DHT22;38460;53.106;7.004;2024-02-21T02:50:24;8.60;99.90
52565;DHT22;38460;53.106;7.004;2024-02-21T02:52:50;8.60;99.90
52565;DHT22;38460;53.106;7.004;2024-02-21T02:55:16;8.50;99.90
52565;DHT22;38460;53.106;7.004;2024-02-21T02:57:42;8.50;99.90
52565;DHT22;38460;53.106;7.004;2024-02-21T03:00:08;8.50;99.90
52565;DHT22;38460;53.106;7.004;2024-02-21T03:02:37;8.50;99.90
52565;DHT22;38460;53.106;7.004;2024-02-21T03:05:15;8.50;99.90
52565;DHT22;38460;53.106;7.004;2024-02-21T03:07:41;8.50;99.90
52565;DHT22;38460;53.106;7.004;2024-02-21T03:10:08;8.50;99.90
52565;DHT22;38460;53.106;7.004;2024-02-21T03:12:34;8.50;99.90
52565;DHT22;38460;53.106;7.004;2024-02-21T03:15:00;8.50;99.90
52565;DHT22;38460;53.106;7.004;2024-02-21T03:17:25;8.50;99.90
52565;DHT22;38460;53.106;7.004;2024-02-21T03:19:54;8.50;99.90
52565;DHT22;38460;53.106;7.004;2024-02-21T03:22:24;8.50;99.90
52565;DHT22;38460;53.106;7.004;2024-02-21T03:24:49;8.50;99.90
52565;DHT22;38460;53.106;7.004;2024-02-21T03:27:15;8.50;99.90
52565;DHT22;38460;53.106;7.004;2024-02-21T03:29:41;8.50;99.90
52565;DHT22;38460;53.106;7.004;2024-02-21T03:32:07;8.50;99.90
52565;DHT22;38460;53.106;7.004;2024-02-21T03:34:32;8.50;99.90
52565;DHT22;38460;53.106;7.004;2024-02-21T03:36:59;8.50;99.90
52565;DHT22;38460;53.106;7.004;2024-02-21T03:39:25;8.50;99.90
52565;DHT22;38460;53.106;7.004;2024-02-21T03:41:51;8.50;99.90
52565;DHT22;38460;53.106;7.004;2024-02-21T03:44:17;8.50;99.90
52565;DHT22;38460;53.106;7.004;2024-02-21T03:46:43;8.50;99.90
52565;DHT22;38460;53.106;7.004;2024-02-21T03:49:09;8.50;99.90
52565;DHT22;38460;53.106;7.004;2024-02-21T03:51:34;8.50;99.90
52565;DHT22;38460;53.106;7.004;2024-02-21T03:54:00;8.50;99.90
52565;DHT22;38460;53.106;7.004;2024-02-21T03:56:26;8.50;99.90
52565;DHT22;38460;53.106;7.004;2024-02-21T03:58:53;8.50;99.90
52565;DHT22;38460;53.106;7.004;2024-02-21T04:01:18;8.50;99.90
52565;DHT22;38460;53.106;7.004;2024-02-21T04:03:44;8.50;99.90
52565;DHT22;38460;53.106;7.004;2024-02-21T04:06:10;8.50;99.90
52565;DHT22;38460;53.106;7.004;2024-02-21T04:08:36;8.50;99.90
52565;DHT22;38460;53.106;7.004;2024-02-21T04:11:02;8.50;99.90
52565;DHT22;38460;53.106;7.004;2024-02-21T04:13:27;8.50;99.90
52565;DHT22;38460;53.106;7.004;2024-02-21T04:15:53;8.50;99.90
52565;DHT22;38460;53.106;7.004;2024-02-21T04:18:19;8.50;99.90
52565;DHT22;38460;53.106;7.004;2024-02-21T04:20:45;8.50;99.90
52565;DHT22;38460;53.106;7.004;2024-02-21T04:23:10;8.50;99.90
52565;DHT22;38460;53.106;7.004;2024-02-21T04:25:36;8.50;99.90
52565;DHT22;38460;53.106;7.004;2024-02-21T04:28:02;8.50;99.90
52565;DHT22;38460;53.106;7.004;2024-02-21T04:30:28;8.50;99.90
52565;DHT22;38460;53.106;7.004;2024-02-21T04:32:54;8.50;99.90
52565;DHT22;38460;53.106;7.004;2024-02-21T04:35:20;8.40;99.90
52565;DHT22;38460;53.106;7.004;2024-02-21T04:37:45;8.50;99.90
52565;DHT22;38460;53.106;7.004;2024-02-21T04:40:11;8.40;99.90
52565;DHT22;38460;53.106;7.004;2024-02-21T04:42:37;8.50;99.90
52565;DHT22;38460;53.106;7.004;2024-02-21T04:45:03;8.50;99.90
52565;DHT22;38460;53.106;7.004;2024-02-21T04:47:29;8.50;99.90
52565;DHT22;38460;53.106;7.004;2024-02-21T04:49:55;8.50;99.90
52565;DHT22;38460;53.106;7.004;2024-02-21T04:52:21;8.50;99.90
52565;DHT22;38460;53.106;7.004;2024-02-21T04:54:47;8.50;99.90
52565;DHT22;38460;53.106;7.004;2024-02-21T04:57:12;8.50;99.90
52565;DHT22;38460;53.106;7.004;2024-02-21T04:59:44;8.50;99.90
52565;DHT22;38460;53.106;7.004;2024-02-21T05:02:09;8.50;99.90
52565;DHT22;38460;53.106;7.004;2024-02-21T05:04:35;8.40;99.90
52565;DHT22;38460;53.106;7.004;2024-02-21T05:07:02;8.50;99.90
52565;DHT22;38460;53.106;7.004;2024-02-21T05:09:28;8.40;99.90
52565;DHT22;38460;53.106;7.004;2024-02-21T05:11:54;8.50;99.90
52565;DHT22;38460;53.106;7.004;2024-02-21T05:14:19;8.50;99.90
52565;DHT22;38460;53.106;7.004;2024-02-21T05:16:45;8.40;99.90
52565;DHT22;38460;53.106;7.004;2024-02-21T05:19:11;8.50;99.90
52565;DHT22;38460;53.106;7.004;2024-02-21T05:21:36;8.50;99.90
52565;DHT22;38460;53.106;7.004;2024-02-21T05:24:02;8.40;99.90
52565;DHT22;38460;53.106;7.004;2024-02-21T05:26:28;8.50;99.90
52565;DHT22;38460;53.106;7.004;2024-02-21T05:28:54;8.50;99.90
52565;DHT22;38460;53.106;7.004;2024-02-21T05:31:20;8.50;99.90
52565;DHT22;38460;53.106;7.004;2024-02-21T05:33:47;8.50;99.90
52565;DHT22;38460;53.106;7.004;2024-02-21T05:36:13;8.40;99.90
52565;DHT22;38460;53.106;7.004;2024-02-21T05:38:39;8.40;99.90
52565;DHT22;38460;53.106;7.004;2024-02-21T05:41:05;8.40;99.90
52565;DHT22;38460;53.106;7.004;2024-02-21T05:43:31;8.40;99.90
52565;DHT22;38460;53.106;7.004;2024-02-21T05:45:57;8.40;99.90
52565;DHT22;38460;53.106;7.004;2024-02-21T05:48:23;8.40;99.90
52565;DHT22;38460;53.106;7.004;2024-02-21T05:50:50;8.40;99.90
52565;DHT22;38460;53.106;7.004;2024-02-21T05:53:15;8.40;99.90
52565;DHT22;38460;53.106;7.004;2024-02-21T05:55:41;8.50;99.90
52565;DHT22;38460;53.106;7.004;2024-02-21T05:58:07;8.50;99.90
52565;DHT22;38460;53.106;7.004;2024-02-21T06:00:37;8.50;99.90
52565;DHT22;38460;53.106;7.004;2024-02-21T06:03:03;8.50;99.90
52565;DHT22;38460;53.106;7.004;2024-02-21T06:05:29;8.50;99.90
52565;DHT22;38460;53.106;7.004;2024-02-21T06:07:55;8.40;99.90
52565;DHT22;38460;53.106;7.004;2024-02-21T06:10:21;8.50;99.90
52565;DHT22;38460;53.106;7.004;2024-02-21T06:12:47;8.50;99.90
52565;DHT22;38460;53.106;7.004;2024-02-21T06:15:12;8.40;99.90
52565;DHT22;38460;53.106;7.004;2024-02-21T06:17:38;8.50;99.90
52565;DHT22;38460;53.106;7.004;2024-02-21T06:20:04;8.40;99.90
52565;DHT22;38460;53.106;7.004;2024-02-21T06:22:30;8.50;99.90
52565;DHT22;38460;53.106;7.004;2024-02-21T06:24:56;8.50;99.90
52565;DHT22;38460;53.106;7.004;2024-02-21T06:27:22;8.50;99.90
52565;DHT22;38460;53.106;7.004;2024-02-21T06:29:47;8.40;99.90
52565;DHT22;38460;53.106;7.004;2024-02-21T06:32:13;8.40;99.90
52565;DHT22;38460;53.106;7.004;2024-02-21T06:34:39;8.40;99.90
52565;DHT22;38460;53.106;7.004;2024-02-21T06:37:04;8.40;99.90
52565;DHT22;38460;53.106;7.004;2024-02-21T06:39:30;8.40;99.90
52565;DHT22;38460;53.106;7.004;2024-02-21T06:41:56;8.40;99.90
52565;DHT22;38460;53.106;7.004;2024-02-21T06:44:22;8.40;99.90
52565;DHT22;38460;53.106;7.004;2024-02-21T06:46:47;8.40;99.90
52565;DHT22;38460;53.106;7.004;2024-02-21T06:49:13;8.40;99.90
52565;DHT22;38460;53.106;7.004;2024-02-21T06:51:42;8.40;99.90
52565;DHT22;38460;53.106;7.004;2024-02-21T06:54:08;8.40;99.90
52565;DHT22;38460;53.106;7.004;2024-02-21T06:56:36;8.40;99.90
52565;DHT22;38460;53.106;7.004;2024-02-21T06:59:02;8.40;99.90
52565;DHT22;38460;53.106;7.004;2024-02-21T07:01:31;8.40;99.90
52565;DHT22;38460;53.106;7.004;2024-02-21T07:03:58;8.40;99.90
52565;DHT22;38460;53.106;7.004;2024-02-21T07:06:24;8.40;99.90
52565;DHT22;38460;53.106;7.004;2024-02-21T07:08:49;8.40;99.90
52565;DHT22;38460;53.106;7.004;2024-02-21T07:11:15;8.40;99.90
52565;DHT22;38460;53.106;7.004;2024-02-21T07:13:41;8.40;99.90
52565;DHT22;38460;53.106;7.004;2024-02-21T07:16:07;8.40;99.90
52565;DHT22;38460;53.106;7.004;2024-02-21T07:18:33;8.40;99.90
52565;DHT22;38460;53.106;7.004;2024-02-21T07:20:59;8.50;99.90
52565;DHT22;38460;53.106;7.004;2024-02-21T07:23:25;8.50;99.90
52565;DHT22;38460;53.106;7.004;2024-02-21T07:25:51;8.40;99.90
52565;DHT22;38460;53.106;7.004;2024-02-21T07:28:16;8.50;99.90
52565;DHT22;38460;53.106;7.004;2024-02-21T07:30:43;8.50;99.90
52565;DHT22;38460;53.106;7.004;2024-02-21T07:33:08;8.40;99.90
52565;DHT22;38460;53.106;7.004;2024-02-21T07:35:35;8.50;99.90
52565;DHT22;38460;53.106;7.004;2024-02-21T07:38:04;8.50;99.90
52565;DHT22;38460;53.106;7.004;2024-02-21T07:40:30;8.50;99.90
52565;DHT22;38460;53.106;7.004;2024-02-21T07:42:56;8.50;99.90
52565;DHT22;38460;53.106;7.004;2024-02-21T07:45:22;8.50;99.90
52565;DHT22;38460;53.106;7.004;2024-02-21T07:47:50;8.50;99.90
52565;DHT22;38460;53.106;7.004;2024-02-21T07:50:16;8.50;99.90
52565;DHT22;38460;53.106;7.004;2024-02-21T07:52:42;8.50;99.90
52565;DHT22;38460;53.106;7.004;2024-02-21T07:55:08;8.50;99.90
52565;DHT22;38460;53.106;7.004;2024-02-21T07:57:36;8.50;99.90
52565;DHT22;38460;53.106;7.004;2024-02-21T08:00:02;8.50;99.90
52565;DHT22;38460;53.106;7.004;2024-02-21T08:02:29;8.50;99.90
52565;DHT22;38460;53.106;7.004;2024-02-21T08:04:55;8.50;99.90
52565;DHT22;38460;53.106;7.004;2024-02-21T08:07:21;8.60;99.90
52565;DHT22;38460;53.106;7.004;2024-02-21T08:09:46;8.60;99.90
52565;DHT22;38460;53.106;7.004;2024-02-21T08:12:12;8.60;99.90
52565;DHT22;38460;53.106;7.004;2024-02-21T08:14:38;8.60;99.90
52565;DHT22;38460;53.106;7.004;2024-02-21T08:17:04;8.60;99.90
52565;DHT22;38460;53.106;7.004;2024-02-21T08:19:30;8.60;99.90
52565;DHT22;38460;53.106;7.004;2024-02-21T08:21:55;8.60;99.90
52565;DHT22;38460;53.106;7.004;2024-02-21T08:24:21;8.60;99.90
52565;DHT22;38460;53.106;7.004;2024-02-21T08:26:48;8.60;99.90
52565;DHT22;38460;53.106;7.004;2024-02-21T08:29:14;8.60;99.90
52565;DHT22;38460;53.106;7.004;2024-02-21T08:31:40;8.60;99.90
52565;DHT22;38460;53.106;7.004;2024-02-21T08:34:05;8.60;99.90
52565;DHT22;38460;53.106;7.004;2024-02-21T08:36:35;9.10;99.90
52565;DHT22;38460;53.106;7.004;2024-02-21T08:39:02;8.60;99.90
52565;DHT22;38460;53.106;7.004;2024-02-21T08:41:34;8.60;99.90
52565;DHT22;38460;53.106;7.004;2024-02-21T08:44:00;8.60;99.90
52565;DHT22;38460;53.106;7.004;2024-02-21T08:46:26;8.60;99.90
52565;DHT22;38460;53.106;7.004;2024-02-21T08:48:53;8.60;99.90
52565;DHT22;38460;53.106;7.004;2024-02-21T08:51:19;8.60;99.90
52565;DHT22;38460;53.106;7.004;2024-02-21T08:53:45;8.60;99.90
52565;DHT22;38460;53.106;7.004;2024-02-21T08:56:11;8.60;99.90
52565;DHT22;38460;53.106;7.004;2024-02-21T08:58:38;8.60;99.90
52565;DHT22;38460;53.106;7.004;2024-02-21T09:01:05;8.60;99.90
52565;DHT22;38460;53.106;7.004;2024-02-21T09:03:33;8.60;99.90
52565;DHT22;38460;53.106;7.004;2024-02-21T09:05:59;8.60;99.90
52565;DHT22;38460;53.106;7.004;2024-02-21T09:08:26;8.60;99.90
52565;DHT22;38460;53.106;7.004;2024-02-21T09:10:53;8.60;99.90
52565;DHT22;38460;53.106;7.004;2024-02-21T09:13:19;8.60;99.90
52565;DHT22;38460;53.106;7.004;2024-02-21T09:15:45;8.60;99.90
52565;DHT22;38460;53.106;7.004;2024-02-21T09:18:11;8.60;99.90
52565;DHT22;38460;53.106;7.004;2024-02-21T09:20:36;8.60;99.90
52565;DHT22;38460;53.106;7.004;2024-02-21T09:23:02;8.60;99.90
52565;DHT22;38460;53.106;7.004;2024-02-21T09:25:28;8.60;99.90
52565;DHT22;38460;53.106;7.004;2024-02-21T09:27:54;8.60;99.90
52565;DHT22;38460;53.106;7.004;2024-02-21T09:30:20;8.60;99.90
52565;DHT22;38460;53.106;7.004;2024-02-21T09:32:46;8.50;99.90
52565;DHT22;38460;53.106;7.004;2024-02-21T09:35:12;8.50;99.90
52565;DHT22;38460;53.106;7.004;2024-02-21T09:37:39;8.50;99.90
52565;DHT22;38460;53.106;7.004;2024-02-21T09:40:05;8.50;99.90
52565;DHT22;38460;53.106;7.004;2024-02-21T09:42:41;8.50;99.90
52565;DHT22;38460;53.106;7.004;2024-02-21T09:45:20;8.50;99.90
52565;DHT22;38460;53.106;7.004;2024-02-21T09:48:25;8.50;99.90
52565;DHT22;38460;53.106;7.004;2024-02-21T09:50:53;8.50;99.90
52565;DHT22;38460;53.106;7.004;2024-02-21T09:53:22;8.50;99.90
52565;DHT22;38460;53.106;7.004;2024-02-21T09:55:50;8.50;99.90
52565;DHT22;38460;53.106;7.004;2024-02-21T09:58:16;8.60;99.90
52565;DHT22;38460;53.106;7.004;2024-02-21T10:00:42;8.60;99.90
52565;DHT22;38460;53.106;7.004;2024-02-21T10:03:08;8.60;99.90
52565;DHT22;38460;53.106;7.004;2024-02-21T10:05:37;8.60;99.90
52565;DHT22;38460;53.106;7.004;2024-02-21T10:08:04;8.60;99.90
52565;DHT22;38460;53.106;7.004;2024-02-21T10:10:43;8.60;99.90
52565;DHT22;38460;53.106;7.004;2024-02-21T10:13:31;8.70;99.90
52565;DHT22;38460;53.106;7.004;2024-02-21T10:16:03;8.70;99.90
52565;DHT22;38460;53.106;7.004;2024-02-21T10:18:29;8.70;99.90
52565;DHT22;38460;53.106;7.004;2024-02-21T10:23:27;8.80;99.90
52565;DHT22;38460;53.106;7.004;2024-02-21T10:25:53;8.80;99.90
52565;DHT22;38460;53.106;7.004;2024-02-21T10:28:18;8.80;99.90
52565;DHT22;38460;53.106;7.004;2024-02-21T10:30:52;8.90;99.90
52565;DHT22;38460;53.106;7.004;2024-02-21T10:33:18;8.90;99.90
52565;DHT22;38460;53.106;7.004;2024-02-21T10:35:47;8.90;99.90
52565;DHT22;38460;53.106;7.004;2024-02-21T10:38:15;8.90;99.90
52565;DHT22;38460;53.106;7.004;2024-02-21T10:40:41;8.90;99.90
52565;DHT22;38460;53.106;7.004;2024-02-21T10:43:12;9.00;99.90
52565;DHT22;38460;53.106;7.004;2024-02-21T10:45:39;9.00;99.90
52565;DHT22;38460;53.106;7.004;2024-02-21T10:48:11;9.10;99.90
52565;DHT22;38460;53.106;7.004;2024-02-21T10:58:49;9.20;99.90
52565;DHT22;38460;53.106;7.004;2024-02-21T11:01:17;9.20;99.90
52565;DHT22;38460;53.106;7.004;2024-02-21T11:03:45;9.20;99.90
52565;DHT22;38460;53.106;7.004;2024-02-21T11:06:12;9.20;99.90
52565;DHT22;38460;53.106;7.004;2024-02-21T11:08:39;9.20;99.90
52565;DHT22;38460;53.106;7.004;2024-02-21T11:11:05;9.20;99.90
52565;DHT22;38460;53.106;7.004;2024-02-21T11:13:37;9.30;99.90
52565;DHT22;38460;53.106;7.004;2024-02-21T11:16:21;9.30;99.90
52565;DHT22;38460;53.106;7.004;2024-02-21T11:18:47;9.30;99.90
52565;DHT22;38460;53.106;7.004;2024-02-21T11:21:13;9.30;99.90
52565;DHT22;38460;53.106;7.004;2024-02-21T11:23:39;9.30;99.90
52565;DHT22;38460;53.106;7.004;2024-02-21T11:26:08;9.40;99.90
52565;DHT22;38460;53.106;7.004;2024-02-21T11:28:35;9.40;99.90
52565;DHT22;38460;53.106;7.004;2024-02-21T11:31:09;9.50;99.90
52565;DHT22;38460;53.106;7.004;2024-02-21T11:33:35;9.50;99.90
52565;DHT22;38460;53.106;7.004;2024-02-21T11:36:01;9.50;99.90
52565;DHT22;38460;53.106;7.004;2024-02-21T11:38:30;9.50;99.90
52565;DHT22;38460;53.106;7.004;2024-02-21T11:40:55;9.50;99.90
52565;DHT22;38460;53.106;7.004;2024-02-21T11:43:21;9.50;99.90
52565;DHT22;38460;53.106;7.004;2024-02-21T11:45:47;9.50;99.90
52565;DHT22;38460;53.106;7.004;2024-02-21T11:48:13;9.50;99.90
52565;DHT22;38460;53.106;7.004;2024-02-21T11:50:39;9.40;99.90
52565;DHT22;38460;53.106;7.004;2024-02-21T11:53:05;9.50;99.90
52565;DHT22;38460;53.106;7.004;2024-02-21T11:55:31;9.40;99.90
52565;DHT22;38460;53.106;7.004;2024-02-21T11:57:57;9.50;99.90
52565;DHT22;38460;53.106;7.004;2024-02-21T12:00:23;9.50;99.90
52565;DHT22;38460;53.106;7.004;2024-02-21T12:02:52;9.50;99.90
52565;DHT22;38460;53.106;7.004;2024-02-21T12:05:21;9.50;99.90
52565;DHT22;38460;53.106;7.004;2024-02-21T12:07:46;9.50;99.90
52565;DHT22;38460;53.106;7.004;2024-02-21T12:10:13;9.50;99.90
52565;DHT22;38460;53.106;7.004;2024-02-21T12:12:39;9.50;99.90
52565;DHT22;38460;53.106;7.004;2024-02-21T12:15:06;9.50;99.90
52565;DHT22;38460;53.106;7.004;2024-02-21T12:17:39;9.50;99.90
52565;DHT22;38460;53.106;7.004;2024-02-21T12:20:06;9.50;99.90
52565;DHT22;38460;53.106;7.004;2024-02-21T12:22:43;9.50;99.90
52565;DHT22;38460;53.106;7.004;2024-02-21T12:25:22;9.50;99.90
52565;DHT22;38460;53.106;7.004;2024-02-21T12:27:49;9.50;99.90
52565;DHT22;38460;53.106;7.004;2024-02-21T12:30:16;9.50;99.90
52565;DHT22;38460;53.106;7.004;2024-02-21T12:32:42;9.50;99.90
52565;DHT22;38460;53.106;7.004;2024-02-21T12:35:09;9.50;99.90
52565;DHT22;38460;53.106;7.004;2024-02-21T12:37:34;9.50;99.90
52565;DHT22;38460;53.106;7.004;2024-02-21T12:40:00;9.50;99.90
52565;DHT22;38460;53.106;7.004;2024-02-21T12:42:26;9.50;99.90
52565;DHT22;38460;53.106;7.004;2024-02-21T12:44:54;9.50;99.90
52565;DHT22;38460;53.106;7.004;2024-02-21T12:47:20;9.50;99.90
52565;DHT22;38460;53.106;7.004;2024-02-21T12:49:49;9.50;99.90
52565;DHT22;38460;53.106;7.004;2024-02-21T12:52:15;9.60;99.90
52565;DHT22;38460;53.106;7.004;2024-02-21T12:54:40;9.60;99.90
52565;DHT22;38460;53.106;7.004;2024-02-21T12:57:08;9.60;99.90
52565;DHT22;38460;53.106;7.004;2024-02-21T12:59:33;9.60;99.90
52565;DHT22;38460;53.106;7.004;2024-02-21T13:01:59;9.60;99.90
52565;DHT22;38460;53.106;7.004;2024-02-21T13:04:25;9.60;99.90
52565;DHT22;38460;53.106;7.004;2024-02-21T13:06:51;9.60;99.90
52565;DHT22;38460;53.106;7.004;2024-02-21T13:09:16;9.60;99.90
52565;DHT22;38460;53.106;7.004;2024-02-21T13:11:43;9.60;99.90
52565;DHT22;38460;53.106;7.004;2024-02-21T13:14:12;9.60;99.90
52565;DHT22;38460;53.106;7.004;2024-02-21T13:16:38;9.60;99.90
52565;DHT22;38460;53.106;7.004;2024-02-21T13:19:07;9.50;99.90
52565;DHT22;38460;53.106;7.004;2024-02-21T13:21:36;9.50;99.90
52565;DHT22;38460;53.106;7.004;2024-02-21T13:24:02;9.50;99.90
52565;DHT22;38460;53.106;7.004;2024-02-21T13:26:28;9.50;99.90
52565;DHT22;38460;53.106;7.004;2024-02-21T13:28:54;9.50;99.90
52565;DHT22;38460;53.106;7.004;2024-02-21T13:31:20;9.50;99.90
52565;DHT22;38460;53.106;7.004;2024-02-21T13:33:46;9.50;99.90
52565;DHT22;38460;53.106;7.004;2024-02-21T13:36:12;9.50;99.90
52565;DHT22;38460;53.106;7.004;2024-02-21T13:38:38;9.60;99.90
52565;DHT22;38460;53.106;7.004;2024-02-21T13:41:07;9.60;99.90
52565;DHT22;38460;53.106;7.004;2024-02-21T13:43:33;9.60;99.90
52565;DHT22;38460;53.106;7.004;2024-02-21T13:46:01;9.60;99.90
52565;DHT22;38460;53.106;7.004;2024-02-21T13:48:35;9.60;99.90
52565;DHT22;38460;53.106;7.004;2024-02-21T13:51:01;9.60;99.90
52565;DHT22;38460;53.106;7.004;2024-02-21T13:53:28;9.70;99.90
52565;DHT22;38460;53.106;7.004;2024-02-21T13:55:54;9.70;99.90
52565;DHT22;38460;53.106;7.004;2024-02-21T13:58:20;9.70;99.90
52565;DHT22;38460;53.106;7.004;2024-02-21T14:00:46;9.70;99.90
52565;DHT22;38460;53.106;7.004;2024-02-21T14:03:12;9.70;99.90
52565;DHT22;38460;53.106;7.004;2024-02-21T14:05:38;9.70;99.90
52565;DHT22;38460;53.106;7.004;2024-02-21T14:08:06;9.60;99.90
52565;DHT22;38460;53.106;7.004;2024-02-21T14:10:32;9.60;99.90
52565;DHT22;38460;53.106;7.004;2024-02-21T14:12:59;9.60;99.90
52565;DHT22;38460;53.106;7.004;2024-02-21T14:15:25;9.60;99.90
52565;DHT22;38460;53.106;7.004;2024-02-21T14:17:51;9.60;99.90
52565;DHT22;38460;53.106;7.004;2024-02-21T14:20:17;9.60;99.90
52565;DHT22;38460;53.106;7.004;2024-02-21T14:22:43;9.60;99.90
52565;DHT22;38460;53.106;7.004;2024-02-21T14:25:09;9.60;99.90
52565;DHT22;38460;53.106;7.004;2024-02-21T14:27:34;9.60;99.90
52565;DHT22;38460;53.106;7.004;2024-02-21T14:30:04;9.50;99.90
52565;DHT22;38460;53.106;7.004;2024-02-21T14:32:30;9.50;99.90
52565;DHT22;38460;53.106;7.004;2024-02-21T14:34:55;9.50;99.90
52565;DHT22;38460;53.106;7.004;2024-02-21T14:37:21;9.50;99.90
52565;DHT22;38460;53.106;7.004;2024-02-21T14:39:47;9.50;99.90
52565;DHT22;38460;53.106;7.004;2024-02-21T14:42:13;9.50;99.90
52565;DHT22;38460;53.106;7.004;2024-02-21T14:44:38;9.50;99.90
52565;DHT22;38460;53.106;7.004;2024-02-21T14:47:04;10.00;99.90
52565;DHT22;38460;53.106;7.004;2024-02-21T14:49:30;9.40;99.90
52565;DHT22;38460;53.106;7.004;2024-02-21T14:51:56;9.40;99.90
52565;DHT22;38460;53.106;7.004;2024-02-21T14:54:22;9.40;99.90
52565;DHT22;38460;53.106;7.004;2024-02-21T14:56:49;9.40;99.90
52565;DHT22;38460;53.106;7.004;2024-02-21T14:59:15;9.40;99.90
52565;DHT22;38460;53.106;7.004;2024-02-21T15:01:42;9.30;99.90
52565;DHT22;38460;53.106;7.004;2024-02-21T15:04:08;9.30;99.90
52565;DHT22;38460;53.106;7.004;2024-02-21T15:06:34;9.30;99.90
52565;DHT22;38460;53.106;7.004;2024-02-21T15:09:05;9.30;99.90
52565;DHT22;38460;53.106;7.004;2024-02-21T15:11:33;9.30;99.90
52565;DHT22;38460;53.106;7.004;2024-02-21T15:13:59;9.30;99.90
52565;DHT22;38460;53.106;7.004;2024-02-21T15:16:24;9.30;99.90
52565;DHT22;38460;53.106;7.004;2024-02-21T15:18:50;9.30;99.90
52565;DHT22;38460;53.106;7.004;2024-02-21T15:21:16;9.30;99.90
52565;DHT22;38460;53.106;7.004;2024-02-21T15:23:44;9.20;99.90
52565;DHT22;38460;53.106;7.004;2024-02-21T15:26:10;9.20;99.90
52565;DHT22;38460;53.106;7.004;2024-02-21T15:28:36;9.20;99.90
52565;DHT22;38460;53.106;7.004;2024-02-21T15:31:01;9.20;99.90
52565;DHT22;38460;53.106;7.004;2024-02-21T15:33:29;9.20;99.90
52565;DHT22;38460;53.106;7.004;2024-02-21T15:35:54;9.20;99.90
52565;DHT22;38460;53.106;7.004;2024-02-21T15:38:20;9.20;99.90
52565;DHT22;38460;53.106;7.004;2024-02-21T15:40:46;9.20;99.90
52565;DHT22;38460;53.106;7.004;2024-02-21T15:43:12;9.20;99.90
52565;DHT22;38460;53.106;7.004;2024-02-21T15:45:38;9.20;99.90
52565;DHT22;38460;53.106;7.004;2024-02-21T15:48:07;9.10;99.90
52565;DHT22;38460;53.106;7.004;2024-02-21T15:50:33;9.20;99.90
52565;DHT22;38460;53.106;7.004;2024-02-21T15:52:58;9.20;99.90